sensor_id;sensor_type;location;lat;lon;timestamp;P1;durP1;ratioP1;P2;durP2;ratioP2
74707;SDS011;63360;50.104;8.074;2023-12-28T00:01:43;4.00;;;1.70;;
74707;SDS011;63360;50.104;8.074;2023-12-28T00:04:09;5.13;;;1.90;;
74707;SDS011;63360;50.104;8.074;2023-12-28T00:06:36;4.32;;;1.77;;
74707;SDS011;63360;50.104;8.074;2023-12-28T00:09:02;4.10;;;1.60;;
74707;SDS011;63360;50.104;8.074;2023-12-28T00:11:37;4.10;;;1.73;;
74707;SDS011;63360;50.104;8.074;2023-12-28T00:14:03;5.30;;;1.73;;
74707;SDS011;63360;50.104;8.074;2023-12-28T00:16:33;4.32;;;1.70;;
74707;SDS011;63360;50.104;8.074;2023-12-28T00:19:00;4.32;;;1.73;;
74707;SDS011;63360;50.104;8.074;2023-12-28T00:21:29;4.95;;;1.60;;
74707;SDS011;63360;50.104;8.074;2023-12-28T00:23:59;5.75;;;1.80;;
74707;SDS011;63360;50.104;8.074;2023-12-28T00:26:25;5.00;;;1.83;;
74707;SDS011;63360;50.104;8.074;2023-12-28T00:28:51;6.78;;;2.20;;
74707;SDS011;63360;50.104;8.074;2023-12-28T00:31:18;4.97;;;2.03;;
74707;SDS011;63360;50.104;8.074;2023-12-28T00:33:44;5.35;;;2.03;;
74707;SDS011;63360;50.104;8.074;2023-12-28T00:36:11;6.00;;;2.10;;
74707;SDS011;63360;50.104;8.074;2023-12-28T00:38:38;4.73;;;1.90;;
74707;SDS011;63360;50.104;8.074;2023-12-28T00:41:04;6.78;;;2.30;;
74707;SDS011;63360;50.104;8.074;2023-12-28T00:43:30;4.82;;;2.13;;
74707;SDS011;63360;50.104;8.074;2023-12-28T00:45:57;4.93;;;2.05;;
74707;SDS011;63360;50.104;8.074;2023-12-28T00:48:23;5.50;;;2.10;;
74707;SDS011;63360;50.104;8.074;2023-12-28T00:50:50;5.30;;;2.03;;
74707;SDS011;63360;50.104;8.074;2023-12-28T00:53:16;4.20;;;1.90;;
74707;SDS011;63360;50.104;8.074;2023-12-28T00:55:43;6.43;;;2.40;;
74707;SDS011;63360;50.104;8.074;2023-12-28T00:58:09;4.55;;;2.05;;
74707;SDS011;63360;50.104;8.074;2023-12-28T01:00:36;4.85;;;2.30;;
74707;SDS011;63360;50.104;8.074;2023-12-28T01:03:02;5.63;;;2.30;;
74707;SDS011;63360;50.104;8.074;2023-12-28T01:05:29;7.10;;;2.47;;
74707;SDS011;63360;50.104;8.074;2023-12-28T01:07:55;5.45;;;2.80;;
74707;SDS011;63360;50.104;8.074;2023-12-28T01:10:22;6.28;;;2.53;;
74707;SDS011;63360;50.104;8.074;2023-12-28T01:12:48;5.22;;;2.60;;
74707;SDS011;63360;50.104;8.074;2023-12-28T01:15:15;6.30;;;2.40;;
74707;SDS011;63360;50.104;8.074;2023-12-28T01:17:43;5.72;;;2.30;;
74707;SDS011;63360;50.104;8.074;2023-12-28T01:20:10;7.63;;;2.70;;
74707;SDS011;63360;50.104;8.074;2023-12-28T01:22:37;6.75;;;2.33;;
74707;SDS011;63360;50.104;8.074;2023-12-28T01:25:03;5.28;;;2.30;;
74707;SDS011;63360;50.104;8.074;2023-12-28T01:27:30;5.47;;;2.40;;
74707;SDS011;63360;50.104;8.074;2023-12-28T01:29:56;5.50;;;2.38;;
74707;SDS011;63360;50.104;8.074;2023-12-28T01:32:23;6.40;;;3.00;;
74707;SDS011;63360;50.104;8.074;2023-12-28T01:34:49;5.15;;;2.38;;
74707;SDS011;63360;50.104;8.074;2023-12-28T01:37:16;4.80;;;2.10;;
74707;SDS011;63360;50.104;8.074;2023-12-28T01:39:42;5.37;;;2.20;;
74707;SDS011;63360;50.104;8.074;2023-12-28T01:42:09;5.50;;;2.40;;
74707;SDS011;63360;50.104;8.074;2023-12-28T01:44:35;5.15;;;2.45;;
74707;SDS011;63360;50.104;8.074;2023-12-28T01:47:02;5.85;;;2.33;;
74707;SDS011;63360;50.104;8.074;2023-12-28T01:49:29;5.85;;;2.50;;
74707;SDS011;63360;50.104;8.074;2023-12-28T01:51:56;5.63;;;2.30;;
74707;SDS011;63360;50.104;8.074;2023-12-28T01:54:23;5.78;;;2.45;;
74707;SDS011;63360;50.104;8.074;2023-12-28T01:56:49;7.13;;;2.38;;
74707;SDS011;63360;50.104;8.074;2023-12-28T01:59:16;5.75;;;2.40;;
74707;SDS011;63360;50.104;8.074;2023-12-28T02:01:42;7.68;;;2.20;;
74707;SDS011;63360;50.104;8.074;2023-12-28T02:04:09;5.83;;;2.30;;
74707;SDS011;63360;50.104;8.074;2023-12-28T02:06:36;4.80;;;2.47;;
74707;SDS011;63360;50.104;8.074;2023-12-28T02:09:02;4.95;;;2.28;;
74707;SDS011;63360;50.104;8.074;2023-12-28T02:11:29;4.70;;;2.30;;
74707;SDS011;63360;50.104;8.074;2023-12-28T02:13:55;4.28;;;1.90;;
74707;SDS011;63360;50.104;8.074;2023-12-28T02:19:09;4.45;;;1.85;;
74707;SDS011;63360;50.104;8.074;2023-12-28T02:21:57;5.65;;;2.20;;
74707;SDS011;63360;50.104;8.074;2023-12-28T02:24:25;4.47;;;2.00;;
74707;SDS011;63360;50.104;8.074;2023-12-28T02:26:52;4.88;;;2.30;;
74707;SDS011;63360;50.104;8.074;2023-12-28T02:29:18;3.97;;;1.80;;
74707;SDS011;63360;50.104;8.074;2023-12-28T02:31:58;6.47;;;1.88;;
74707;SDS011;63360;50.104;8.074;2023-12-28T02:34:34;4.47;;;1.80;;
74707;SDS011;63360;50.104;8.074;2023-12-28T02:37:06;4.82;;;2.10;;
74707;SDS011;63360;50.104;8.074;2023-12-28T02:39:33;4.30;;;1.70;;
74707;SDS011;63360;50.104;8.074;2023-12-28T02:42:00;4.10;;;1.90;;
74707;SDS011;63360;50.104;8.074;2023-12-28T02:44:27;3.55;;;1.60;;
74707;SDS011;63360;50.104;8.074;2023-12-28T02:46:53;3.78;;;1.70;;
74707;SDS011;63360;50.104;8.074;2023-12-28T02:49:20;4.50;;;1.90;;
74707;SDS011;63360;50.104;8.074;2023-12-28T02:51:46;5.72;;;1.80;;
74707;SDS011;63360;50.104;8.074;2023-12-28T02:54:13;3.50;;;1.40;;
74707;SDS011;63360;50.104;8.074;2023-12-28T02:56:40;3.47;;;1.70;;
74707;SDS011;63360;50.104;8.074;2023-12-28T02:59:07;3.33;;;1.55;;
74707;SDS011;63360;50.104;8.074;2023-12-28T03:01:33;4.47;;;1.60;;
74707;SDS011;63360;50.104;8.074;2023-12-28T03:04:00;4.15;;;1.60;;
74707;SDS011;63360;50.104;8.074;2023-12-28T03:06:26;5.23;;;1.33;;
74707;SDS011;63360;50.104;8.074;2023-12-28T03:08:53;3.10;;;1.48;;
74707;SDS011;63360;50.104;8.074;2023-12-28T03:11:19;3.92;;;1.33;;
74707;SDS011;63360;50.104;8.074;2023-12-28T03:13:46;2.90;;;1.40;;
74707;SDS011;63360;50.104;8.074;2023-12-28T03:16:13;4.00;;;1.60;;
74707;SDS011;63360;50.104;8.074;2023-12-28T03:18:40;4.43;;;1.50;;
74707;SDS011;63360;50.104;8.074;2023-12-28T03:21:06;3.30;;;1.42;;
74707;SDS011;63360;50.104;8.074;2023-12-28T03:23:33;3.53;;;1.58;;
74707;SDS011;63360;50.104;8.074;2023-12-28T03:26:00;5.72;;;1.45;;
74707;SDS011;63360;50.104;8.074;2023-12-28T03:28:27;4.15;;;1.63;;
74707;SDS011;63360;50.104;8.074;2023-12-28T03:30:53;3.40;;;1.30;;
74707;SDS011;63360;50.104;8.074;2023-12-28T03:33:20;4.68;;;1.40;;
74707;SDS011;63360;50.104;8.074;2023-12-28T03:35:46;3.20;;;1.27;;
74707;SDS011;63360;50.104;8.074;2023-12-28T03:38:12;5.28;;;1.60;;
74707;SDS011;63360;50.104;8.074;2023-12-28T03:40:39;2.95;;;1.27;;
74707;SDS011;63360;50.104;8.074;2023-12-28T03:43:05;3.47;;;1.60;;
74707;SDS011;63360;50.104;8.074;2023-12-28T03:45:32;3.03;;;1.40;;
74707;SDS011;63360;50.104;8.074;2023-12-28T03:47:58;3.20;;;1.40;;
74707;SDS011;63360;50.104;8.074;2023-12-28T03:50:25;3.33;;;1.45;;
74707;SDS011;63360;50.104;8.074;2023-12-28T03:52:52;3.35;;;1.50;;
74707;SDS011;63360;50.104;8.074;2023-12-28T03:55:18;3.73;;;1.50;;
74707;SDS011;63360;50.104;8.074;2023-12-28T03:57:44;3.15;;;1.20;;
74707;SDS011;63360;50.104;8.074;2023-12-28T04:00:13;3.38;;;1.38;;
74707;SDS011;63360;50.104;8.074;2023-12-28T04:02:41;3.17;;;1.50;;
74707;SDS011;63360;50.104;8.074;2023-12-28T04:05:07;3.80;;;1.60;;
74707;SDS011;63360;50.104;8.074;2023-12-28T04:07:34;4.17;;;1.50;;
74707;SDS011;63360;50.104;8.074;2023-12-28T04:10:00;4.78;;;1.80;;
74707;SDS011;63360;50.104;8.074;2023-12-28T04:12:27;4.00;;;1.73;;
74707;SDS011;63360;50.104;8.074;2023-12-28T04:14:54;4.88;;;2.13;;
74707;SDS011;63360;50.104;8.074;2023-12-28T04:17:20;3.85;;;1.80;;
74707;SDS011;63360;50.104;8.074;2023-12-28T04:19:47;4.00;;;1.83;;
74707;SDS011;63360;50.104;8.074;2023-12-28T04:22:14;3.50;;;1.73;;
74707;SDS011;63360;50.104;8.074;2023-12-28T04:24:40;4.60;;;1.95;;
74707;SDS011;63360;50.104;8.074;2023-12-28T04:27:07;6.05;;;2.10;;
74707;SDS011;63360;50.104;8.074;2023-12-28T04:29:34;3.88;;;2.00;;
74707;SDS011;63360;50.104;8.074;2023-12-28T04:32:01;4.53;;;1.97;;
74707;SDS011;63360;50.104;8.074;2023-12-28T04:34:27;4.25;;;1.98;;
74707;SDS011;63360;50.104;8.074;2023-12-28T04:36:54;4.75;;;1.75;;
74707;SDS011;63360;50.104;8.074;2023-12-28T04:39:20;4.32;;;1.77;;
74707;SDS011;63360;50.104;8.074;2023-12-28T04:41:47;4.00;;;1.90;;
74707;SDS011;63360;50.104;8.074;2023-12-28T04:44:13;4.40;;;2.30;;
74707;SDS011;63360;50.104;8.074;2023-12-28T04:46:40;4.28;;;1.98;;
74707;SDS011;63360;50.104;8.074;2023-12-28T04:49:10;5.00;;;2.03;;
74707;SDS011;63360;50.104;8.074;2023-12-28T04:51:41;3.50;;;1.50;;
74707;SDS011;63360;50.104;8.074;2023-12-28T04:54:11;4.40;;;1.90;;
74707;SDS011;63360;50.104;8.074;2023-12-28T04:56:37;4.47;;;1.70;;
74707;SDS011;63360;50.104;8.074;2023-12-28T04:59:04;3.70;;;1.75;;
74707;SDS011;63360;50.104;8.074;2023-12-28T05:01:30;4.53;;;1.80;;
74707;SDS011;63360;50.104;8.074;2023-12-28T05:03:59;4.43;;;1.98;;
74707;SDS011;63360;50.104;8.074;2023-12-28T05:06:27;5.05;;;2.33;;
74707;SDS011;63360;50.104;8.074;2023-12-28T05:08:54;4.27;;;1.70;;
74707;SDS011;63360;50.104;8.074;2023-12-28T05:11:21;4.65;;;2.10;;
74707;SDS011;63360;50.104;8.074;2023-12-28T05:13:47;5.88;;;2.10;;
74707;SDS011;63360;50.104;8.074;2023-12-28T05:16:13;6.82;;;1.90;;
74707;SDS011;63360;50.104;8.074;2023-12-28T05:18:40;4.55;;;1.80;;
74707;SDS011;63360;50.104;8.074;2023-12-28T05:21:06;5.00;;;1.87;;
74707;SDS011;63360;50.104;8.074;2023-12-28T05:23:33;4.03;;;1.73;;
74707;SDS011;63360;50.104;8.074;2023-12-28T05:25:59;5.40;;;2.20;;
74707;SDS011;63360;50.104;8.074;2023-12-28T05:28:25;5.72;;;2.40;;
74707;SDS011;63360;50.104;8.074;2023-12-28T05:30:52;6.90;;;2.85;;
74707;SDS011;63360;50.104;8.074;2023-12-28T05:33:18;7.00;;;2.50;;
74707;SDS011;63360;50.104;8.074;2023-12-28T05:35:45;7.13;;;2.58;;
74707;SDS011;63360;50.104;8.074;2023-12-28T05:38:11;6.47;;;3.35;;
74707;SDS011;63360;50.104;8.074;2023-12-28T05:40:38;6.70;;;3.00;;
74707;SDS011;63360;50.104;8.074;2023-12-28T05:43:04;5.63;;;3.00;;
74707;SDS011;63360;50.104;8.074;2023-12-28T05:45:30;6.33;;;3.27;;
74707;SDS011;63360;50.104;8.074;2023-12-28T05:47:57;6.97;;;3.50;;
74707;SDS011;63360;50.104;8.074;2023-12-28T05:50:24;6.65;;;3.28;;
74707;SDS011;63360;50.104;8.074;2023-12-28T05:52:50;5.78;;;3.05;;
74707;SDS011;63360;50.104;8.074;2023-12-28T05:55:17;8.68;;;3.70;;
74707;SDS011;63360;50.104;8.074;2023-12-28T05:57:43;6.63;;;3.40;;
74707;SDS011;63360;50.104;8.074;2023-12-28T06:00:10;6.15;;;3.25;;
74707;SDS011;63360;50.104;8.074;2023-12-28T06:02:37;5.40;;;3.10;;
74707;SDS011;63360;50.104;8.074;2023-12-28T06:05:03;5.88;;;2.95;;
74707;SDS011;63360;50.104;8.074;2023-12-28T06:07:30;5.90;;;2.80;;
74707;SDS011;63360;50.104;8.074;2023-12-28T06:09:57;6.50;;;2.90;;
74707;SDS011;63360;50.104;8.074;2023-12-28T06:12:23;7.00;;;2.65;;
74707;SDS011;63360;50.104;8.074;2023-12-28T06:14:50;6.03;;;3.00;;
74707;SDS011;63360;50.104;8.074;2023-12-28T06:17:16;7.53;;;3.30;;
74707;SDS011;63360;50.104;8.074;2023-12-28T06:19:44;5.43;;;2.53;;
74707;SDS011;63360;50.104;8.074;2023-12-28T06:22:11;5.57;;;2.50;;
74707;SDS011;63360;50.104;8.074;2023-12-28T06:24:38;6.68;;;2.60;;
74707;SDS011;63360;50.104;8.074;2023-12-28T06:27:05;4.75;;;2.33;;
74707;SDS011;63360;50.104;8.074;2023-12-28T06:29:32;7.72;;;2.90;;
74707;SDS011;63360;50.104;8.074;2023-12-28T06:31:58;5.20;;;2.55;;
74707;SDS011;63360;50.104;8.074;2023-12-28T06:34:25;4.77;;;2.40;;
74707;SDS011;63360;50.104;8.074;2023-12-28T06:36:53;5.25;;;2.55;;
74707;SDS011;63360;50.104;8.074;2023-12-28T06:39:19;5.07;;;2.33;;
74707;SDS011;63360;50.104;8.074;2023-12-28T06:41:49;4.53;;;2.67;;
74707;SDS011;63360;50.104;8.074;2023-12-28T06:44:15;4.80;;;2.28;;
74707;SDS011;63360;50.104;8.074;2023-12-28T06:46:42;4.40;;;2.30;;
74707;SDS011;63360;50.104;8.074;2023-12-28T06:49:08;5.32;;;2.10;;
74707;SDS011;63360;50.104;8.074;2023-12-28T06:51:37;4.90;;;2.05;;
74707;SDS011;63360;50.104;8.074;2023-12-28T06:54:03;5.38;;;1.98;;
74707;SDS011;63360;50.104;8.074;2023-12-28T06:56:30;5.10;;;1.90;;
74707;SDS011;63360;50.104;8.074;2023-12-28T06:58:56;4.33;;;1.80;;
74707;SDS011;63360;50.104;8.074;2023-12-28T07:01:22;3.72;;;1.90;;
74707;SDS011;63360;50.104;8.074;2023-12-28T07:03:49;4.03;;;1.85;;
74707;SDS011;63360;50.104;8.074;2023-12-28T07:06:16;4.30;;;1.83;;
74707;SDS011;63360;50.104;8.074;2023-12-28T07:08:42;4.80;;;2.05;;
74707;SDS011;63360;50.104;8.074;2023-12-28T07:11:11;3.27;;;1.70;;
74707;SDS011;63360;50.104;8.074;2023-12-28T07:13:38;5.78;;;1.98;;
74707;SDS011;63360;50.104;8.074;2023-12-28T07:16:05;4.03;;;2.00;;
74707;SDS011;63360;50.104;8.074;2023-12-28T07:18:33;4.53;;;1.40;;
74707;SDS011;63360;50.104;8.074;2023-12-28T07:21:00;3.83;;;1.80;;
74707;SDS011;63360;50.104;8.074;2023-12-28T07:23:27;4.30;;;1.53;;
74707;SDS011;63360;50.104;8.074;2023-12-28T07:25:53;2.88;;;1.20;;
74707;SDS011;63360;50.104;8.074;2023-12-28T07:28:19;4.78;;;1.83;;
74707;SDS011;63360;50.104;8.074;2023-12-28T07:30:46;4.35;;;1.60;;
74707;SDS011;63360;50.104;8.074;2023-12-28T07:33:13;4.07;;;1.52;;
74707;SDS011;63360;50.104;8.074;2023-12-28T07:35:40;3.50;;;1.40;;
74707;SDS011;63360;50.104;8.074;2023-12-28T07:38:06;3.35;;;1.25;;
74707;SDS011;63360;50.104;8.074;2023-12-28T07:40:32;4.30;;;1.50;;
74707;SDS011;63360;50.104;8.074;2023-12-28T07:42:59;3.88;;;1.00;;
74707;SDS011;63360;50.104;8.074;2023-12-28T07:45:27;3.58;;;1.17;;
74707;SDS011;63360;50.104;8.074;2023-12-28T07:47:53;3.97;;;1.40;;
74707;SDS011;63360;50.104;8.074;2023-12-28T07:50:20;4.53;;;1.08;;
74707;SDS011;63360;50.104;8.074;2023-12-28T07:52:47;3.88;;;1.90;;
74707;SDS011;63360;50.104;8.074;2023-12-28T07:55:14;3.30;;;1.15;;
74707;SDS011;63360;50.104;8.074;2023-12-28T07:57:41;3.50;;;1.20;;
74707;SDS011;63360;50.104;8.074;2023-12-28T08:00:08;3.07;;;1.00;;
74707;SDS011;63360;50.104;8.074;2023-12-28T08:02:35;3.38;;;1.00;;
74707;SDS011;63360;50.104;8.074;2023-12-28T08:05:02;4.00;;;1.45;;
74707;SDS011;63360;50.104;8.074;2023-12-28T08:07:30;3.40;;;1.25;;
74707;SDS011;63360;50.104;8.074;2023-12-28T08:09:56;3.03;;;1.00;;
74707;SDS011;63360;50.104;8.074;2023-12-28T08:12:23;5.13;;;1.30;;
74707;SDS011;63360;50.104;8.074;2023-12-28T08:14:50;3.33;;;1.27;;
74707;SDS011;63360;50.104;8.074;2023-12-28T08:17:17;3.88;;;1.40;;
74707;SDS011;63360;50.104;8.074;2023-12-28T08:19:43;4.05;;;1.30;;
74707;SDS011;63360;50.104;8.074;2023-12-28T08:22:09;3.50;;;1.40;;
74707;SDS011;63360;50.104;8.074;2023-12-28T08:24:36;3.03;;;1.30;;
74707;SDS011;63360;50.104;8.074;2023-12-28T08:27:02;5.07;;;1.38;;
74707;SDS011;63360;50.104;8.074;2023-12-28T08:29:29;7.47;;;1.60;;
74707;SDS011;63360;50.104;8.074;2023-12-28T08:31:56;3.70;;;1.38;;
74707;SDS011;63360;50.104;8.074;2023-12-28T08:34:22;3.47;;;1.33;;
74707;SDS011;63360;50.104;8.074;2023-12-28T08:36:49;4.43;;;1.40;;
74707;SDS011;63360;50.104;8.074;2023-12-28T08:39:15;4.10;;;1.13;;
74707;SDS011;63360;50.104;8.074;2023-12-28T08:41:42;3.92;;;1.50;;
74707;SDS011;63360;50.104;8.074;2023-12-28T08:44:08;4.07;;;1.60;;
74707;SDS011;63360;50.104;8.074;2023-12-28T08:46:34;4.68;;;1.17;;
74707;SDS011;63360;50.104;8.074;2023-12-28T08:49:01;4.13;;;1.50;;
74707;SDS011;63360;50.104;8.074;2023-12-28T08:51:27;3.65;;;1.30;;
74707;SDS011;63360;50.104;8.074;2023-12-28T08:53:54;3.90;;;1.45;;
74707;SDS011;63360;50.104;8.074;2023-12-28T08:56:20;3.83;;;1.33;;
74707;SDS011;63360;50.104;8.074;2023-12-28T08:58:47;3.22;;;1.50;;
74707;SDS011;63360;50.104;8.074;2023-12-28T09:01:23;4.87;;;1.40;;
74707;SDS011;63360;50.104;8.074;2023-12-28T09:03:52;3.83;;;1.60;;
74707;SDS011;63360;50.104;8.074;2023-12-28T09:06:19;3.78;;;1.60;;
74707;SDS011;63360;50.104;8.074;2023-12-28T09:08:50;5.43;;;1.65;;
74707;SDS011;63360;50.104;8.074;2023-12-28T09:11:17;4.20;;;1.50;;
74707;SDS011;63360;50.104;8.074;2023-12-28T09:13:44;4.30;;;1.33;;
74707;SDS011;63360;50.104;8.074;2023-12-28T09:16:12;5.50;;;1.40;;
74707;SDS011;63360;50.104;8.074;2023-12-28T09:18:40;5.15;;;1.70;;
74707;SDS011;63360;50.104;8.074;2023-12-28T09:21:07;4.45;;;1.23;;
74707;SDS011;63360;50.104;8.074;2023-12-28T09:23:35;4.32;;;1.60;;
74707;SDS011;63360;50.104;8.074;2023-12-28T09:26:02;3.27;;;1.40;;
74707;SDS011;63360;50.104;8.074;2023-12-28T09:28:30;5.05;;;1.50;;
74707;SDS011;63360;50.104;8.074;2023-12-28T09:30:57;5.63;;;1.27;;
74707;SDS011;63360;50.104;8.074;2023-12-28T09:33:23;5.03;;;1.15;;
74707;SDS011;63360;50.104;8.074;2023-12-28T09:35:50;4.63;;;1.40;;
74707;SDS011;63360;50.104;8.074;2023-12-28T09:38:18;3.97;;;1.30;;
74707;SDS011;63360;50.104;8.074;2023-12-28T09:40:45;4.53;;;1.30;;
74707;SDS011;63360;50.104;8.074;2023-12-28T09:43:22;3.25;;;1.20;;
74707;SDS011;63360;50.104;8.074;2023-12-28T09:45:51;3.13;;;1.30;;
74707;SDS011;63360;50.104;8.074;2023-12-28T09:48:21;3.20;;;1.00;;
74707;SDS011;63360;50.104;8.074;2023-12-28T09:50:49;5.20;;;1.40;;
74707;SDS011;63360;50.104;8.074;2023-12-28T09:53:17;3.55;;;1.00;;
74707;SDS011;63360;50.104;8.074;2023-12-28T09:55:44;3.22;;;1.00;;
74707;SDS011;63360;50.104;8.074;2023-12-28T09:58:11;3.88;;;1.00;;
74707;SDS011;63360;50.104;8.074;2023-12-28T10:00:44;3.63;;;0.98;;
74707;SDS011;63360;50.104;8.074;2023-12-28T10:03:12;3.13;;;0.67;;
74707;SDS011;63360;50.104;8.074;2023-12-28T10:05:43;4.07;;;1.00;;
74707;SDS011;63360;50.104;8.074;2023-12-28T10:08:16;3.42;;;0.90;;
74707;SDS011;63360;50.104;8.074;2023-12-28T10:10:43;3.90;;;0.90;;
74707;SDS011;63360;50.104;8.074;2023-12-28T10:13:16;3.70;;;0.90;;
74707;SDS011;63360;50.104;8.074;2023-12-28T10:15:43;3.37;;;0.90;;
74707;SDS011;63360;50.104;8.074;2023-12-28T10:18:10;2.85;;;0.98;;
74707;SDS011;63360;50.104;8.074;2023-12-28T10:20:37;4.47;;;1.20;;
74707;SDS011;63360;50.104;8.074;2023-12-28T10:23:04;3.67;;;1.00;;
74707;SDS011;63360;50.104;8.074;2023-12-28T10:25:31;2.55;;;1.00;;
74707;SDS011;63360;50.104;8.074;2023-12-28T10:28:03;3.23;;;0.90;;
74707;SDS011;63360;50.104;8.074;2023-12-28T10:30:30;2.78;;;0.80;;
74707;SDS011;63360;50.104;8.074;2023-12-28T10:32:57;2.25;;;0.90;;
74707;SDS011;63360;50.104;8.074;2023-12-28T10:35:24;3.97;;;1.02;;
74707;SDS011;63360;50.104;8.074;2023-12-28T10:37:51;3.75;;;1.23;;
74707;SDS011;63360;50.104;8.074;2023-12-28T10:40:20;1.90;;;0.90;;
74707;SDS011;63360;50.104;8.074;2023-12-28T10:42:50;2.65;;;0.90;;
74707;SDS011;63360;50.104;8.074;2023-12-28T10:45:18;2.83;;;1.08;;
74707;SDS011;63360;50.104;8.074;2023-12-28T10:48:08;3.13;;;0.98;;
74707;SDS011;63360;50.104;8.074;2023-12-28T10:50:38;3.42;;;1.15;;
74707;SDS011;63360;50.104;8.074;2023-12-28T10:58:46;3.88;;;1.05;;
74707;SDS011;63360;50.104;8.074;2023-12-28T11:01:29;2.83;;;1.20;;
74707;SDS011;63360;50.104;8.074;2023-12-28T11:04:02;3.15;;;1.10;;
74707;SDS011;63360;50.104;8.074;2023-12-28T11:06:34;3.53;;;1.20;;
74707;SDS011;63360;50.104;8.074;2023-12-28T11:09:02;4.97;;;1.20;;
74707;SDS011;63360;50.104;8.074;2023-12-28T11:11:31;2.65;;;1.17;;
74707;SDS011;63360;50.104;8.074;2023-12-28T11:14:00;4.18;;;1.30;;
74707;SDS011;63360;50.104;8.074;2023-12-28T11:16:28;4.00;;;1.30;;
74707;SDS011;63360;50.104;8.074;2023-12-28T11:18:55;3.67;;;0.90;;
74707;SDS011;63360;50.104;8.074;2023-12-28T11:21:22;2.83;;;1.10;;
74707;SDS011;63360;50.104;8.074;2023-12-28T11:23:49;3.42;;;0.98;;
74707;SDS011;63360;50.104;8.074;2023-12-28T11:26:16;8.45;;;1.40;;
74707;SDS011;63360;50.104;8.074;2023-12-28T11:28:44;3.63;;;1.05;;
74707;SDS011;63360;50.104;8.074;2023-12-28T11:31:10;3.93;;;1.07;;
74707;SDS011;63360;50.104;8.074;2023-12-28T11:33:46;3.03;;;1.08;;
74707;SDS011;63360;50.104;8.074;2023-12-28T11:36:27;3.20;;;1.05;;
74707;SDS011;63360;50.104;8.074;2023-12-28T11:39:03;2.80;;;1.00;;
74707;SDS011;63360;50.104;8.074;2023-12-28T11:41:32;4.97;;;1.27;;
74707;SDS011;63360;50.104;8.074;2023-12-28T11:44:04;4.07;;;0.97;;
74707;SDS011;63360;50.104;8.074;2023-12-28T11:46:31;3.10;;;0.80;;
74707;SDS011;63360;50.104;8.074;2023-12-28T11:49:08;6.22;;;0.90;;
74707;SDS011;63360;50.104;8.074;2023-12-28T11:51:36;3.53;;;0.70;;
74707;SDS011;63360;50.104;8.074;2023-12-28T11:54:04;3.50;;;0.70;;
74707;SDS011;63360;50.104;8.074;2023-12-28T11:56:32;1.87;;;0.60;;
74707;SDS011;63360;50.104;8.074;2023-12-28T11:58:59;3.78;;;0.80;;
74707;SDS011;63360;50.104;8.074;2023-12-28T12:01:26;3.53;;;0.65;;
74707;SDS011;63360;50.104;8.074;2023-12-28T12:03:53;1.92;;;0.70;;
74707;SDS011;63360;50.104;8.074;2023-12-28T12:06:20;5.97;;;0.80;;
74707;SDS011;63360;50.104;8.074;2023-12-28T12:08:46;2.77;;;0.80;;
74707;SDS011;63360;50.104;8.074;2023-12-28T12:11:13;2.38;;;0.63;;
74707;SDS011;63360;50.104;8.074;2023-12-28T12:13:39;4.20;;;0.90;;
74707;SDS011;63360;50.104;8.074;2023-12-28T12:16:06;3.03;;;0.70;;
74707;SDS011;63360;50.104;8.074;2023-12-28T12:18:34;4.75;;;0.60;;
74707;SDS011;63360;50.104;8.074;2023-12-28T12:21:02;2.90;;;0.70;;
74707;SDS011;63360;50.104;8.074;2023-12-28T12:23:29;4.20;;;0.73;;
74707;SDS011;63360;50.104;8.074;2023-12-28T12:25:56;3.72;;;0.70;;
74707;SDS011;63360;50.104;8.074;2023-12-28T12:28:22;2.70;;;0.60;;
74707;SDS011;63360;50.104;8.074;2023-12-28T12:30:49;4.22;;;0.80;;
74707;SDS011;63360;50.104;8.074;2023-12-28T12:33:18;4.73;;;0.80;;
74707;SDS011;63360;50.104;8.074;2023-12-28T12:35:44;2.60;;;0.50;;
74707;SDS011;63360;50.104;8.074;2023-12-28T12:38:11;3.47;;;0.90;;
74707;SDS011;63360;50.104;8.074;2023-12-28T12:40:37;2.75;;;0.63;;
74707;SDS011;63360;50.104;8.074;2023-12-28T12:43:04;3.47;;;0.65;;
74707;SDS011;63360;50.104;8.074;2023-12-28T12:45:35;2.60;;;0.70;;
74707;SDS011;63360;50.104;8.074;2023-12-28T12:48:05;1.58;;;0.50;;
74707;SDS011;63360;50.104;8.074;2023-12-28T12:50:32;3.40;;;0.63;;
74707;SDS011;63360;50.104;8.074;2023-12-28T12:53:01;3.67;;;0.50;;
74707;SDS011;63360;50.104;8.074;2023-12-28T12:55:31;3.30;;;0.65;;
74707;SDS011;63360;50.104;8.074;2023-12-28T12:57:58;3.63;;;0.80;;
74707;SDS011;63360;50.104;8.074;2023-12-28T13:00:24;3.67;;;0.73;;
74707;SDS011;63360;50.104;8.074;2023-12-28T13:02:51;4.45;;;0.80;;
74707;SDS011;63360;50.104;8.074;2023-12-28T13:05:19;3.63;;;0.70;;
74707;SDS011;63360;50.104;8.074;2023-12-28T13:07:46;3.08;;;0.95;;
74707;SDS011;63360;50.104;8.074;2023-12-28T13:10:12;3.80;;;1.03;;
74707;SDS011;63360;50.104;8.074;2023-12-28T13:12:39;4.22;;;0.95;;
74707;SDS011;63360;50.104;8.074;2023-12-28T13:15:05;4.75;;;1.00;;
74707;SDS011;63360;50.104;8.074;2023-12-28T13:17:32;3.85;;;1.00;;
74707;SDS011;63360;50.104;8.074;2023-12-28T13:19:59;3.30;;;1.00;;
74707;SDS011;63360;50.104;8.074;2023-12-28T13:22:25;4.73;;;1.37;;
74707;SDS011;63360;50.104;8.074;2023-12-28T13:24:52;3.75;;;1.30;;
74707;SDS011;63360;50.104;8.074;2023-12-28T13:27:18;3.95;;;1.38;;
74707;SDS011;63360;50.104;8.074;2023-12-28T13:29:45;4.28;;;1.63;;
74707;SDS011;63360;50.104;8.074;2023-12-28T13:32:11;4.75;;;1.33;;
74707;SDS011;63360;50.104;8.074;2023-12-28T13:34:38;3.00;;;1.30;;
74707;SDS011;63360;50.104;8.074;2023-12-28T13:37:04;3.45;;;1.30;;
74707;SDS011;63360;50.104;8.074;2023-12-28T13:39:31;5.40;;;1.70;;
74707;SDS011;63360;50.104;8.074;2023-12-28T13:41:57;5.63;;;1.48;;
74707;SDS011;63360;50.104;8.074;2023-12-28T13:44:24;2.90;;;1.50;;
74707;SDS011;63360;50.104;8.074;2023-12-28T13:46:51;6.77;;;1.43;;
74707;SDS011;63360;50.104;8.074;2023-12-28T13:49:17;3.72;;;1.40;;
74707;SDS011;63360;50.104;8.074;2023-12-28T13:51:44;3.35;;;1.30;;
74707;SDS011;63360;50.104;8.074;2023-12-28T13:54:12;6.30;;;1.45;;
74707;SDS011;63360;50.104;8.074;2023-12-28T13:56:38;2.75;;;1.35;;
74707;SDS011;63360;50.104;8.074;2023-12-28T13:59:05;4.10;;;1.40;;
74707;SDS011;63360;50.104;8.074;2023-12-28T14:01:31;3.28;;;1.55;;
74707;SDS011;63360;50.104;8.074;2023-12-28T14:03:58;4.72;;;1.80;;
74707;SDS011;63360;50.104;8.074;2023-12-28T14:06:24;4.57;;;1.52;;
74707;SDS011;63360;50.104;8.074;2023-12-28T14:08:51;4.47;;;1.80;;
74707;SDS011;63360;50.104;8.074;2023-12-28T14:11:17;4.30;;;1.70;;
74707;SDS011;63360;50.104;8.074;2023-12-28T14:13:44;4.60;;;1.63;;
74707;SDS011;63360;50.104;8.074;2023-12-28T14:16:10;6.88;;;1.98;;
74707;SDS011;63360;50.104;8.074;2023-12-28T14:18:37;3.80;;;1.70;;
74707;SDS011;63360;50.104;8.074;2023-12-28T14:21:06;5.55;;;1.67;;
74707;SDS011;63360;50.104;8.074;2023-12-28T14:23:33;4.57;;;1.83;;
74707;SDS011;63360;50.104;8.074;2023-12-28T14:26:00;3.90;;;1.40;;
74707;SDS011;63360;50.104;8.074;2023-12-28T14:28:28;3.85;;;1.50;;
74707;SDS011;63360;50.104;8.074;2023-12-28T14:30:57;5.97;;;1.48;;
74707;SDS011;63360;50.104;8.074;2023-12-28T14:33:24;5.07;;;1.35;;
74707;SDS011;63360;50.104;8.074;2023-12-28T14:35:52;2.83;;;1.37;;
74707;SDS011;63360;50.104;8.074;2023-12-28T14:38:18;3.90;;;1.10;;
74707;SDS011;63360;50.104;8.074;2023-12-28T14:40:45;3.20;;;1.38;;
74707;SDS011;63360;50.104;8.074;2023-12-28T14:43:11;3.65;;;1.40;;
74707;SDS011;63360;50.104;8.074;2023-12-28T14:45:37;4.20;;;1.80;;
74707;SDS011;63360;50.104;8.074;2023-12-28T14:48:04;5.60;;;2.73;;
74707;SDS011;63360;50.104;8.074;2023-12-28T14:50:31;4.97;;;2.17;;
74707;SDS011;63360;50.104;8.074;2023-12-28T14:52:57;3.55;;;1.50;;
74707;SDS011;63360;50.104;8.074;2023-12-28T14:55:23;2.03;;;0.75;;
74707;SDS011;63360;50.104;8.074;2023-12-28T14:57:50;4.00;;;1.17;;